World Clock
14°C
Ekeren, Belgium
Taal:  Nederlands
Bijgewerkt op13-Jun-2024 08:40 
 




METARS IN BELGIE


EBAW - Antwerp/Deurne, Belgium
Distance from station: OZO 32km
Bijgewerkt: 13/06/2024 08:20
Helder
Helder
 Wind van Z
Wind: Z 11 km/h
Temperatuur: 13°C
Dauwpunt: 6°C
Luchtvochtigheid: 63%
Luchtdrukmeter: 1018 hPa
Overzicht: Helder
Visibility: greater than 10 km
2024/06/13 06:20 EBAW 130620Z 19006KT CAVOK 13/06 Q1018 NOSIG
EBBR - Brussels Nationa, Belgium
Distance from station: ZO 54km
Bijgewerkt: 13/06/2024 08:20
Few Clouds
Few Clouds
 Wind van Z
Wind: Z 11 km/h
Temperatuur: 13°C
Dauwpunt: 7°C
Luchtvochtigheid: 67%
Luchtdrukmeter: 1018 hPa
Clouds: Few Clouds
Visibility: 10 km
Cloud details: Few Clouds 732 m
2024/06/13 06:20 EBBR 130620Z 19006KT 9999 FEW024 13/07 Q1018 NOSIG
 
EBBE - Beauvechain (baf, Belgium
Distance from station: ZO 78km
Bijgewerkt: 13/06/2024 08:25
Few Clouds
Few Clouds
 Wind van Z
Wind: Z 11 km/h
Temperatuur: 13°C
Dauwpunt: 8°C
Luchtvochtigheid: 72%
Luchtdrukmeter: 1018 hPa
Clouds: Few Clouds
Visibility: 10 km
Cloud details: Few Clouds 4572 m
2024/06/13 06:25 EBBE 130625Z 19006KT 9999 FEW150 13/08 Q1018 BLU BLU
EBDT - Schaffen, Belgium
Distance from station: OZO 78km
Bijgewerkt: 13/06/2024 08:25
Helder
Helder
 Wind van ZZW
Wind: ZZW 11 km/h
Temperatuur: 12°C
Dauwpunt: 8°C
Luchtvochtigheid: 77%
Luchtdrukmeter: 1018 hPa
Clouds: Helder
Visibility: 10 km
2024/06/13 06:25 EBDT 130625Z AUTO 20006KT 9999 NCD 12/08 Q1018 BLU
 
EBCV - Chievres Ab, Belgium
Distance from station: Z 80km
Bijgewerkt: 13/06/2024 08:25
Zwaar bewolkt
Zwaar bewolkt
 Wind van ZZW
Wind: ZZW 15 km/h
Temperatuur: 13°C
Dauwpunt: 8°C
Luchtvochtigheid: 72%
Luchtdrukmeter: 1018 hPa
Clouds: Zwaar bewolkt
Visibility: 10 km
Cloud details: Few Clouds 2286 m
Voornamelijk bewolkt 2896 m
Zwaar bewolkt 3353 m
2024/06/13 06:25 EBCV 130625Z AUTO 20008KT 9999 FEW075/// BKN095/// OVC110/// 13/08 Q1018 BLU
EBOS - Oostende Airport, Belgium
Distance from station: W 81km
Bijgewerkt: 13/06/2024 08:20
Few Clouds
Few Clouds
 Wind van ZZW
Wind: ZZW 13 km/h
Temperatuur: 12°C
Dauwpunt: 9°C
Luchtvochtigheid: 82%
Luchtdrukmeter: 1018 hPa
Clouds: Few Clouds
Visibility: 10 km
Cloud details: Few Clouds 1341 m
2024/06/13 06:20 EBOS 130620Z 20007KT 170V230 9999 FEW044 12/09 Q1018 NOSIG
 
EBCI - Charleroi/Gossel, Belgium
Distance from station: ZZO 95km
Bijgewerkt: 13/06/2024 08:20
Helder
Helder
 Wind van Z
Wind: Z 11 km/h
Temperatuur: 11°C
Dauwpunt: 6°C
Luchtvochtigheid: 72%
Luchtdrukmeter: 1019 hPa
Overzicht: Helder
Visibility: greater than 10 km
2024/06/13 06:20 EBCI 130620Z 19006KT 160V220 CAVOK 11/06 Q1019 NOSIG
EBFN - Koksijde (bel-Af, Belgium
Distance from station: WZW 98km
Bijgewerkt: 13/06/2024 08:25
Few Clouds
Few Clouds
 Wind van ZZW
Wind: ZZW 13 km/h
Temperatuur: 12°C
Dauwpunt: 9°C
Luchtvochtigheid: 82%
Luchtdrukmeter: 1017 hPa
Clouds: Few Clouds
Visibility: 10 km
Cloud details: Few Clouds 1372 m
2024/06/13 06:25 EBFN 130625Z 20007KT 9999 FEW045 12/09 Q1017 BLU BLU
 
EBBL - Kleine-Brogel(Ba, Belgium
Distance from station: O 101km
Bijgewerkt: 13/06/2024 08:25
Few Clouds
Few Clouds
 Wind van ZZW
Wind: ZZW 7 km/h
Temperatuur: 13°C
Dauwpunt: 8°C
Luchtvochtigheid: 72%
Luchtdrukmeter: 1018 hPa
Clouds: Few Clouds
Visibility: 10 km
Cloud details: Few Clouds 3353 m
2024/06/13 06:25 EBBL 130625Z 20004KT 9999 FEW110 13/08 Q1018 BLU BLU
EBLG - Bierset/Liege (c, Belgium
Distance from station: ZO 123km
Bijgewerkt: 13/06/2024 08:20
Helder
Helder
 Wind van ZZO
Wind: ZZO 11 km/h
Temperatuur: 11°C
Dauwpunt: 7°C
Luchtvochtigheid: 77%
Luchtdrukmeter: 1019 hPa
Overzicht: Helder
Visibility: greater than 10 km
2024/06/13 06:20 EBLG 130620Z 16006KT CAVOK 11/07 Q1019 NOSIG
 
EBFS - Florennes (bel-A, Belgium
Distance from station: ZZO 124km
Bijgewerkt: 13/06/2024 08:25
Few Clouds
Few Clouds
 Wind van Z
Wind: Z 11 km/h
Temperatuur: 11°C
Dauwpunt: 6°C
Luchtvochtigheid: 72%
Luchtdrukmeter: 1018 hPa
Clouds: Few Clouds
Visibility: 10 km
Cloud details: Few Clouds 2134 m
2024/06/13 06:25 EBFS 130625Z 18006KT 9999 FEW070 11/06 Q1018 BLU BLU